sensor_id;sensor_type;location;lat;lon;timestamp;temperature;humidity
55083;DHT22;40978;52.850;6.506;2023-04-26T00:01:48;2.50;99.90
55083;DHT22;40978;52.850;6.506;2023-04-26T00:04:14;2.60;99.90
55083;DHT22;40978;52.850;6.506;2023-04-26T00:06:39;2.50;99.90
55083;DHT22;40978;52.850;6.506;2023-04-26T00:09:06;2.50;99.90
55083;DHT22;40978;52.850;6.506;2023-04-26T00:11:32;2.50;99.90
55083;DHT22;40978;52.850;6.506;2023-04-26T00:13:58;2.50;99.90
55083;DHT22;40978;52.850;6.506;2023-04-26T00:16:24;2.60;99.90
55083;DHT22;40978;52.850;6.506;2023-04-26T00:18:49;2.60;99.90
55083;DHT22;40978;52.850;6.506;2023-04-26T00:21:15;2.70;99.90
55083;DHT22;40978;52.850;6.506;2023-04-26T00:23:41;2.70;99.90
55083;DHT22;40978;52.850;6.506;2023-04-26T00:26:07;2.70;99.90
55083;DHT22;40978;52.850;6.506;2023-04-26T00:28:33;2.80;99.90
55083;DHT22;40978;52.850;6.506;2023-04-26T00:30:59;2.90;99.90
55083;DHT22;40978;52.850;6.506;2023-04-26T00:33:25;2.90;99.90
55083;DHT22;40978;52.850;6.506;2023-04-26T00:35:51;3.00;99.90
55083;DHT22;40978;52.850;6.506;2023-04-26T00:38:17;3.00;99.90
55083;DHT22;40978;52.850;6.506;2023-04-26T00:40:42;3.10;99.90
55083;DHT22;40978;52.850;6.506;2023-04-26T00:43:09;3.20;99.90
55083;DHT22;40978;52.850;6.506;2023-04-26T00:45:35;3.20;99.90
55083;DHT22;40978;52.850;6.506;2023-04-26T00:48:02;3.30;99.90
55083;DHT22;40978;52.850;6.506;2023-04-26T00:50:28;3.30;99.90
55083;DHT22;40978;52.850;6.506;2023-04-26T00:52:58;3.30;99.90
55083;DHT22;40978;52.850;6.506;2023-04-26T00:55:26;3.30;99.90
55083;DHT22;40978;52.850;6.506;2023-04-26T00:57:52;3.40;99.90
55083;DHT22;40978;52.850;6.506;2023-04-26T01:00:18;3.40;99.90
55083;DHT22;40978;52.850;6.506;2023-04-26T01:02:44;3.50;99.90
55083;DHT22;40978;52.850;6.506;2023-04-26T01:05:10;3.40;99.90
55083;DHT22;40978;52.850;6.506;2023-04-26T01:07:36;3.40;99.90
55083;DHT22;40978;52.850;6.506;2023-04-26T01:10:03;3.40;99.90
55083;DHT22;40978;52.850;6.506;2023-04-26T01:12:31;3.40;99.90
55083;DHT22;40978;52.850;6.506;2023-04-26T01:14:58;3.40;99.90
55083;DHT22;40978;52.850;6.506;2023-04-26T01:17:24;3.40;99.90
55083;DHT22;40978;52.850;6.506;2023-04-26T01:19:50;3.30;99.90
55083;DHT22;40978;52.850;6.506;2023-04-26T01:22:17;3.30;99.90
55083;DHT22;40978;52.850;6.506;2023-04-26T01:24:44;3.20;99.90
55083;DHT22;40978;52.850;6.506;2023-04-26T01:27:11;3.10;99.90
55083;DHT22;40978;52.850;6.506;2023-04-26T01:29:37;3.10;99.90
55083;DHT22;40978;52.850;6.506;2023-04-26T01:32:03;3.00;99.90
55083;DHT22;40978;52.850;6.506;2023-04-26T01:34:29;3.00;99.90
55083;DHT22;40978;52.850;6.506;2023-04-26T01:36:54;2.90;99.90
55083;DHT22;40978;52.850;6.506;2023-04-26T01:39:21;2.80;99.90
55083;DHT22;40978;52.850;6.506;2023-04-26T01:41:46;2.80;99.90
55083;DHT22;40978;52.850;6.506;2023-04-26T01:44:12;2.70;99.90
55083;DHT22;40978;52.850;6.506;2023-04-26T01:46:38;2.60;99.90
55083;DHT22;40978;52.850;6.506;2023-04-26T01:49:04;2.60;99.90
55083;DHT22;40978;52.850;6.506;2023-04-26T01:51:29;2.60;99.90
55083;DHT22;40978;52.850;6.506;2023-04-26T01:53:55;2.60;99.90
55083;DHT22;40978;52.850;6.506;2023-04-26T01:56:23;2.60;99.90
55083;DHT22;40978;52.850;6.506;2023-04-26T01:58:49;2.60;99.90
55083;DHT22;40978;52.850;6.506;2023-04-26T02:01:15;2.70;99.90
55083;DHT22;40978;52.850;6.506;2023-04-26T02:03:41;2.70;99.90
55083;DHT22;40978;52.850;6.506;2023-04-26T02:06:07;2.80;99.90
55083;DHT22;40978;52.850;6.506;2023-04-26T02:08:33;2.80;99.90
55083;DHT22;40978;52.850;6.506;2023-04-26T02:10:58;2.90;99.90
55083;DHT22;40978;52.850;6.506;2023-04-26T02:13:24;2.90;99.90
55083;DHT22;40978;52.850;6.506;2023-04-26T02:15:50;3.00;99.90
55083;DHT22;40978;52.850;6.506;2023-04-26T02:18:16;3.10;99.90
55083;DHT22;40978;52.850;6.506;2023-04-26T02:20:46;3.20;99.90
55083;DHT22;40978;52.850;6.506;2023-04-26T02:23:12;3.20;99.90
55083;DHT22;40978;52.850;6.506;2023-04-26T02:25:38;3.20;99.90
55083;DHT22;40978;52.850;6.506;2023-04-26T02:28:05;3.20;99.90
55083;DHT22;40978;52.850;6.506;2023-04-26T02:30:31;3.20;99.90
55083;DHT22;40978;52.850;6.506;2023-04-26T02:32:57;3.20;99.90
55083;DHT22;40978;52.850;6.506;2023-04-26T02:35:23;3.20;99.90
55083;DHT22;40978;52.850;6.506;2023-04-26T02:37:49;3.20;99.90
55083;DHT22;40978;52.850;6.506;2023-04-26T02:40:19;3.20;99.90
55083;DHT22;40978;52.850;6.506;2023-04-26T02:42:46;3.20;99.90
55083;DHT22;40978;52.850;6.506;2023-04-26T02:45:12;3.20;99.90
55083;DHT22;40978;52.850;6.506;2023-04-26T02:47:37;3.20;99.90
55083;DHT22;40978;52.850;6.506;2023-04-26T02:50:07;3.20;99.90
55083;DHT22;40978;52.850;6.506;2023-04-26T02:52:36;3.20;99.90
55083;DHT22;40978;52.850;6.506;2023-04-26T02:55:02;3.20;99.90
55083;DHT22;40978;52.850;6.506;2023-04-26T02:57:29;3.10;99.90
55083;DHT22;40978;52.850;6.506;2023-04-26T02:59:56;3.10;99.90
55083;DHT22;40978;52.850;6.506;2023-04-26T03:02:22;3.00;99.90
55083;DHT22;40978;52.850;6.506;2023-04-26T03:04:47;3.00;99.90
55083;DHT22;40978;52.850;6.506;2023-04-26T03:07:13;2.90;99.90
55083;DHT22;40978;52.850;6.506;2023-04-26T03:09:39;2.90;99.90
55083;DHT22;40978;52.850;6.506;2023-04-26T03:12:08;2.80;99.90
55083;DHT22;40978;52.850;6.506;2023-04-26T03:14:35;2.80;99.90
55083;DHT22;40978;52.850;6.506;2023-04-26T03:17:01;2.90;99.90
55083;DHT22;40978;52.850;6.506;2023-04-26T03:19:27;2.70;99.90
55083;DHT22;40978;52.850;6.506;2023-04-26T03:21:54;2.70;99.90
55083;DHT22;40978;52.850;6.506;2023-04-26T03:24:20;2.60;99.90
55083;DHT22;40978;52.850;6.506;2023-04-26T03:26:46;2.60;99.90
55083;DHT22;40978;52.850;6.506;2023-04-26T03:29:11;2.60;99.90
55083;DHT22;40978;52.850;6.506;2023-04-26T03:31:37;2.50;99.90
55083;DHT22;40978;52.850;6.506;2023-04-26T03:34:03;2.50;99.90
55083;DHT22;40978;52.850;6.506;2023-04-26T03:36:29;2.40;99.90
55083;DHT22;40978;52.850;6.506;2023-04-26T03:38:55;2.40;99.90
55083;DHT22;40978;52.850;6.506;2023-04-26T03:41:21;2.40;99.90
55083;DHT22;40978;52.850;6.506;2023-04-26T03:43:48;2.30;99.90
55083;DHT22;40978;52.850;6.506;2023-04-26T03:46:13;2.30;99.90
55083;DHT22;40978;52.850;6.506;2023-04-26T03:48:39;2.20;99.90
55083;DHT22;40978;52.850;6.506;2023-04-26T03:51:05;2.20;99.90
55083;DHT22;40978;52.850;6.506;2023-04-26T03:53:31;2.20;99.90
55083;DHT22;40978;52.850;6.506;2023-04-26T03:55:57;2.10;99.90
55083;DHT22;40978;52.850;6.506;2023-04-26T03:58:26;2.20;99.90
55083;DHT22;40978;52.850;6.506;2023-04-26T04:00:55;2.10;99.90
55083;DHT22;40978;52.850;6.506;2023-04-26T04:03:22;2.10;99.90
55083;DHT22;40978;52.850;6.506;2023-04-26T04:05:48;2.10;99.90
55083;DHT22;40978;52.850;6.506;2023-04-26T04:08:13;2.10;99.90
55083;DHT22;40978;52.850;6.506;2023-04-26T04:10:40;2.10;99.90
55083;DHT22;40978;52.850;6.506;2023-04-26T04:13:07;2.10;99.90
55083;DHT22;40978;52.850;6.506;2023-04-26T04:15:33;2.10;99.90
55083;DHT22;40978;52.850;6.506;2023-04-26T04:17:58;2.10;99.90
55083;DHT22;40978;52.850;6.506;2023-04-26T04:20:24;2.10;99.90
55083;DHT22;40978;52.850;6.506;2023-04-26T04:22:50;2.00;99.90
55083;DHT22;40978;52.850;6.506;2023-04-26T04:25:16;2.10;99.90
55083;DHT22;40978;52.850;6.506;2023-04-26T04:27:42;2.00;99.90
55083;DHT22;40978;52.850;6.506;2023-04-26T04:30:08;2.00;99.90
55083;DHT22;40978;52.850;6.506;2023-04-26T04:32:35;2.00;99.90
55083;DHT22;40978;52.850;6.506;2023-04-26T04:35:01;2.00;99.90
55083;DHT22;40978;52.850;6.506;2023-04-26T04:37:27;2.20;99.90
55083;DHT22;40978;52.850;6.506;2023-04-26T04:39:58;2.00;99.90
55083;DHT22;40978;52.850;6.506;2023-04-26T04:42:24;2.00;99.90
55083;DHT22;40978;52.850;6.506;2023-04-26T04:44:52;2.00;99.90
55083;DHT22;40978;52.850;6.506;2023-04-26T04:47:17;2.10;99.90
55083;DHT22;40978;52.850;6.506;2023-04-26T04:49:43;2.10;99.90
55083;DHT22;40978;52.850;6.506;2023-04-26T04:52:09;2.10;99.90
55083;DHT22;40978;52.850;6.506;2023-04-26T04:54:35;2.10;99.90
55083;DHT22;40978;52.850;6.506;2023-04-26T04:57:01;2.20;99.90
55083;DHT22;40978;52.850;6.506;2023-04-26T04:59:28;2.20;99.90
55083;DHT22;40978;52.850;6.506;2023-04-26T05:01:54;2.30;99.90
55083;DHT22;40978;52.850;6.506;2023-04-26T05:04:20;2.30;99.90
55083;DHT22;40978;52.850;6.506;2023-04-26T05:06:46;2.40;99.90
55083;DHT22;40978;52.850;6.506;2023-04-26T05:09:11;2.60;99.90
55083;DHT22;40978;52.850;6.506;2023-04-26T05:11:37;2.70;99.90
55083;DHT22;40978;52.850;6.506;2023-04-26T05:14:03;2.90;99.90
55083;DHT22;40978;52.850;6.506;2023-04-26T05:16:28;3.10;99.90
55083;DHT22;40978;52.850;6.506;2023-04-26T05:18:54;3.30;99.90
55083;DHT22;40978;52.850;6.506;2023-04-26T05:21:20;3.50;99.90
55083;DHT22;40978;52.850;6.506;2023-04-26T05:23:47;3.60;99.90
55083;DHT22;40978;52.850;6.506;2023-04-26T05:26:14;3.70;99.90
55083;DHT22;40978;52.850;6.506;2023-04-26T05:28:41;3.80;99.90
55083;DHT22;40978;52.850;6.506;2023-04-26T05:31:07;3.90;99.90
55083;DHT22;40978;52.850;6.506;2023-04-26T05:33:33;3.90;99.90
55083;DHT22;40978;52.850;6.506;2023-04-26T05:35:59;4.00;99.90
55083;DHT22;40978;52.850;6.506;2023-04-26T05:38:26;4.20;99.90
55083;DHT22;40978;52.850;6.506;2023-04-26T05:40:52;4.40;99.90
55083;DHT22;40978;52.850;6.506;2023-04-26T05:43:17;4.70;99.90
55083;DHT22;40978;52.850;6.506;2023-04-26T05:45:53;4.80;99.90
55083;DHT22;40978;52.850;6.506;2023-04-26T05:48:20;5.00;99.90
55083;DHT22;40978;52.850;6.506;2023-04-26T05:50:47;5.10;99.90
55083;DHT22;40978;52.850;6.506;2023-04-26T05:53:13;5.30;99.90
55083;DHT22;40978;52.850;6.506;2023-04-26T05:55:40;5.30;99.90
55083;DHT22;40978;52.850;6.506;2023-04-26T05:58:06;5.50;99.90
55083;DHT22;40978;52.850;6.506;2023-04-26T06:00:32;5.70;99.90
55083;DHT22;40978;52.850;6.506;2023-04-26T06:02:58;5.90;99.90
55083;DHT22;40978;52.850;6.506;2023-04-26T06:05:24;6.20;99.90
55083;DHT22;40978;52.850;6.506;2023-04-26T06:07:50;6.40;99.90
55083;DHT22;40978;52.850;6.506;2023-04-26T06:10:16;6.70;99.90
55083;DHT22;40978;52.850;6.506;2023-04-26T06:12:42;6.80;99.90
55083;DHT22;40978;52.850;6.506;2023-04-26T06:15:08;6.90;99.90
55083;DHT22;40978;52.850;6.506;2023-04-26T06:17:34;6.90;99.90
55083;DHT22;40978;52.850;6.506;2023-04-26T06:20:00;6.90;99.90
55083;DHT22;40978;52.850;6.506;2023-04-26T06:22:26;6.90;99.90
55083;DHT22;40978;52.850;6.506;2023-04-26T06:24:51;6.90;99.90
55083;DHT22;40978;52.850;6.506;2023-04-26T06:27:17;6.90;99.90
55083;DHT22;40978;52.850;6.506;2023-04-26T06:29:43;6.90;99.90
55083;DHT22;40978;52.850;6.506;2023-04-26T06:32:09;7.00;99.90
55083;DHT22;40978;52.850;6.506;2023-04-26T06:34:35;7.00;99.90
55083;DHT22;40978;52.850;6.506;2023-04-26T06:37:03;7.10;99.90
55083;DHT22;40978;52.850;6.506;2023-04-26T06:39:29;7.10;99.90
55083;DHT22;40978;52.850;6.506;2023-04-26T06:41:55;7.30;99.90
55083;DHT22;40978;52.850;6.506;2023-04-26T06:44:21;7.40;99.90
55083;DHT22;40978;52.850;6.506;2023-04-26T06:46:47;7.50;99.90
55083;DHT22;40978;52.850;6.506;2023-04-26T06:49:14;7.70;99.90
55083;DHT22;40978;52.850;6.506;2023-04-26T06:51:40;7.80;99.90
55083;DHT22;40978;52.850;6.506;2023-04-26T06:54:05;8.00;99.90
55083;DHT22;40978;52.850;6.506;2023-04-26T06:56:31;8.00;99.90
55083;DHT22;40978;52.850;6.506;2023-04-26T06:59:05;7.90;99.90
55083;DHT22;40978;52.850;6.506;2023-04-26T07:01:31;8.00;99.90
55083;DHT22;40978;52.850;6.506;2023-04-26T07:04:04;8.00;99.90
55083;DHT22;40978;52.850;6.506;2023-04-26T07:06:32;7.90;99.90
55083;DHT22;40978;52.850;6.506;2023-04-26T07:08:59;7.90;99.90
55083;DHT22;40978;52.850;6.506;2023-04-26T07:11:25;8.00;99.90
55083;DHT22;40978;52.850;6.506;2023-04-26T07:13:51;8.20;99.90
55083;DHT22;40978;52.850;6.506;2023-04-26T07:16:17;8.30;99.90
55083;DHT22;40978;52.850;6.506;2023-04-26T07:18:42;8.50;99.90
55083;DHT22;40978;52.850;6.506;2023-04-26T07:21:08;8.60;99.90
55083;DHT22;40978;52.850;6.506;2023-04-26T07:23:34;8.80;99.90
55083;DHT22;40978;52.850;6.506;2023-04-26T07:26:01;8.90;99.90
55083;DHT22;40978;52.850;6.506;2023-04-26T07:28:32;9.30;99.90
55083;DHT22;40978;52.850;6.506;2023-04-26T07:30:58;9.40;99.90
55083;DHT22;40978;52.850;6.506;2023-04-26T07:33:24;9.60;99.90
55083;DHT22;40978;52.850;6.506;2023-04-26T07:35:58;9.60;99.90
55083;DHT22;40978;52.850;6.506;2023-04-26T07:38:26;9.60;99.90
55083;DHT22;40978;52.850;6.506;2023-04-26T07:40:52;9.60;99.90
55083;DHT22;40978;52.850;6.506;2023-04-26T07:43:21;9.40;99.90
55083;DHT22;40978;52.850;6.506;2023-04-26T07:45:47;9.50;99.90
55083;DHT22;40978;52.850;6.506;2023-04-26T07:48:13;9.90;99.90
55083;DHT22;40978;52.850;6.506;2023-04-26T07:50:38;10.30;99.90
55083;DHT22;40978;52.850;6.506;2023-04-26T07:53:04;10.50;99.90
55083;DHT22;40978;52.850;6.506;2023-04-26T07:55:30;10.70;99.90
55083;DHT22;40978;52.850;6.506;2023-04-26T07:57:56;11.00;99.90
55083;DHT22;40978;52.850;6.506;2023-04-26T08:00:22;11.40;99.90
55083;DHT22;40978;52.850;6.506;2023-04-26T08:02:48;11.60;99.90
55083;DHT22;40978;52.850;6.506;2023-04-26T08:05:15;11.90;99.90
55083;DHT22;40978;52.850;6.506;2023-04-26T08:07:41;12.50;99.90
55083;DHT22;40978;52.850;6.506;2023-04-26T08:10:08;12.70;99.90
55083;DHT22;40978;52.850;6.506;2023-04-26T08:12:35;12.80;99.90
55083;DHT22;40978;52.850;6.506;2023-04-26T08:15:01;12.70;99.90
55083;DHT22;40978;52.850;6.506;2023-04-26T08:17:27;12.50;99.90
55083;DHT22;40978;52.850;6.506;2023-04-26T08:19:53;12.40;99.90
55083;DHT22;40978;52.850;6.506;2023-04-26T08:22:19;12.50;99.90
55083;DHT22;40978;52.850;6.506;2023-04-26T08:24:49;12.40;99.90
55083;DHT22;40978;52.850;6.506;2023-04-26T08:27:16;12.00;99.90
55083;DHT22;40978;52.850;6.506;2023-04-26T08:29:42;11.50;99.90
55083;DHT22;40978;52.850;6.506;2023-04-26T08:32:08;11.10;99.90
55083;DHT22;40978;52.850;6.506;2023-04-26T08:34:33;10.70;99.90
55083;DHT22;40978;52.850;6.506;2023-04-26T08:36:59;10.40;99.90
55083;DHT22;40978;52.850;6.506;2023-04-26T08:39:25;10.10;99.90
55083;DHT22;40978;52.850;6.506;2023-04-26T08:41:56;9.90;99.90
55083;DHT22;40978;52.850;6.506;2023-04-26T08:44:24;9.80;99.90
55083;DHT22;40978;52.850;6.506;2023-04-26T08:49:39;9.70;99.90
55083;DHT22;40978;52.850;6.506;2023-04-26T08:52:11;9.80;99.90
55083;DHT22;40978;52.850;6.506;2023-04-26T08:54:38;10.00;99.90
55083;DHT22;40978;52.850;6.506;2023-04-26T08:57:05;10.40;99.90
55083;DHT22;40978;52.850;6.506;2023-04-26T08:59:35;10.90;99.90
55083;DHT22;40978;52.850;6.506;2023-04-26T09:02:04;11.20;99.90
55083;DHT22;40978;52.850;6.506;2023-04-26T09:04:31;11.10;99.90
55083;DHT22;40978;52.850;6.506;2023-04-26T09:07:02;11.10;99.90
55083;DHT22;40978;52.850;6.506;2023-04-26T09:09:40;11.30;99.90
55083;DHT22;40978;52.850;6.506;2023-04-26T09:12:07;11.80;99.90
55083;DHT22;40978;52.850;6.506;2023-04-26T09:14:33;12.50;99.90
55083;DHT22;40978;52.850;6.506;2023-04-26T09:16:59;13.20;99.90
55083;DHT22;40978;52.850;6.506;2023-04-26T09:19:40;13.60;99.90
55083;DHT22;40978;52.850;6.506;2023-04-26T09:22:08;13.90;99.90
55083;DHT22;40978;52.850;6.506;2023-04-26T09:24:48;14.10;99.90
55083;DHT22;40978;52.850;6.506;2023-04-26T09:27:17;14.40;96.70
55083;DHT22;40978;52.850;6.506;2023-04-26T09:30:18;14.60;99.90
55083;DHT22;40978;52.850;6.506;2023-04-26T09:33:01;14.60;90.50
55083;DHT22;40978;52.850;6.506;2023-04-26T09:35:40;14.50;93.70
55083;DHT22;40978;52.850;6.506;2023-04-26T09:38:07;14.60;94.40
55083;DHT22;40978;52.850;6.506;2023-04-26T09:40:45;14.90;99.90
55083;DHT22;40978;52.850;6.506;2023-04-26T09:43:18;15.40;98.80
55083;DHT22;40978;52.850;6.506;2023-04-26T09:48:48;15.70;96.40
55083;DHT22;40978;52.850;6.506;2023-04-26T09:51:09;15.40;93.50
55083;DHT22;40978;52.850;6.506;2023-04-26T09:53:41;15.10;93.80
55083;DHT22;40978;52.850;6.506;2023-04-26T09:56:14;15.10;92.80
55083;DHT22;40978;52.850;6.506;2023-04-26T09:58:58;15.10;81.60
55083;DHT22;40978;52.850;6.506;2023-04-26T10:01:26;15.30;90.00
55083;DHT22;40978;52.850;6.506;2023-04-26T10:03:55;15.40;93.70
55083;DHT22;40978;52.850;6.506;2023-04-26T10:06:22;15.40;91.40
55083;DHT22;40978;52.850;6.506;2023-04-26T10:08:47;15.20;90.60
55083;DHT22;40978;52.850;6.506;2023-04-26T10:11:13;14.80;88.20
55083;DHT22;40978;52.850;6.506;2023-04-26T10:13:40;14.20;87.80
55083;DHT22;40978;52.850;6.506;2023-04-26T10:16:06;13.30;86.70
55083;DHT22;40978;52.850;6.506;2023-04-26T10:18:34;12.30;90.60
55083;DHT22;40978;52.850;6.506;2023-04-26T10:21:07;11.50;92.40
55083;DHT22;40978;52.850;6.506;2023-04-26T10:23:35;11.00;94.50
55083;DHT22;40978;52.850;6.506;2023-04-26T10:26:01;10.40;96.70
55083;DHT22;40978;52.850;6.506;2023-04-26T10:29:00;9.90;98.80
55083;DHT22;40978;52.850;6.506;2023-04-26T10:31:26;9.60;99.50
55083;DHT22;40978;52.850;6.506;2023-04-26T10:34:21;9.20;99.90
55083;DHT22;40978;52.850;6.506;2023-04-26T10:39:39;9.00;99.90
55083;DHT22;40978;52.850;6.506;2023-04-26T10:42:25;8.90;99.90
55083;DHT22;40978;52.850;6.506;2023-04-26T10:44:56;9.00;99.90
55083;DHT22;40978;52.850;6.506;2023-04-26T10:47:30;9.00;99.90
55083;DHT22;40978;52.850;6.506;2023-04-26T10:50:09;9.00;99.90
55083;DHT22;40978;52.850;6.506;2023-04-26T10:55:40;9.10;99.90
55083;DHT22;40978;52.850;6.506;2023-04-26T10:58:44;9.30;99.90
55083;DHT22;40978;52.850;6.506;2023-04-26T11:03:41;9.50;99.90
55083;DHT22;40978;52.850;6.506;2023-04-26T11:06:10;9.70;99.90
55083;DHT22;40978;52.850;6.506;2023-04-26T11:08:39;9.90;99.90
55083;DHT22;40978;52.850;6.506;2023-04-26T11:11:12;10.20;99.90
55083;DHT22;40978;52.850;6.506;2023-04-26T11:13:39;10.30;99.90
55083;DHT22;40978;52.850;6.506;2023-04-26T11:16:07;10.70;99.90
55083;DHT22;40978;52.850;6.506;2023-04-26T11:18:34;11.30;99.90
55083;DHT22;40978;52.850;6.506;2023-04-26T11:21:01;12.00;99.90
55083;DHT22;40978;52.850;6.506;2023-04-26T11:23:28;12.90;99.90
55083;DHT22;40978;52.850;6.506;2023-04-26T11:25:59;13.50;98.70
55083;DHT22;40978;52.850;6.506;2023-04-26T11:28:31;13.80;93.30
55083;DHT22;40978;52.850;6.506;2023-04-26T11:30:58;13.80;95.00
55083;DHT22;40978;52.850;6.506;2023-04-26T11:33:24;13.70;90.30
55083;DHT22;40978;52.850;6.506;2023-04-26T11:35:51;13.40;87.10
55083;DHT22;40978;52.850;6.506;2023-04-26T11:38:20;12.90;86.90
55083;DHT22;40978;52.850;6.506;2023-04-26T11:40:55;12.60;87.00
55083;DHT22;40978;52.850;6.506;2023-04-26T11:43:22;12.30;84.70
55083;DHT22;40978;52.850;6.506;2023-04-26T11:45:58;12.10;88.60
55083;DHT22;40978;52.850;6.506;2023-04-26T11:48:24;11.90;89.20
55083;DHT22;40978;52.850;6.506;2023-04-26T11:50:51;12.00;90.10
55083;DHT22;40978;52.850;6.506;2023-04-26T11:53:17;12.70;91.50
55083;DHT22;40978;52.850;6.506;2023-04-26T11:55:44;13.20;89.70
55083;DHT22;40978;52.850;6.506;2023-04-26T11:58:13;13.10;86.80
55083;DHT22;40978;52.850;6.506;2023-04-26T12:00:56;12.80;86.60
55083;DHT22;40978;52.850;6.506;2023-04-26T12:03:22;12.60;88.60
55083;DHT22;40978;52.850;6.506;2023-04-26T12:05:53;12.20;91.90
55083;DHT22;40978;52.850;6.506;2023-04-26T12:08:23;12.10;92.10
55083;DHT22;40978;52.850;6.506;2023-04-26T12:10:50;11.80;92.20
55083;DHT22;40978;52.850;6.506;2023-04-26T12:13:15;11.70;93.30
55083;DHT22;40978;52.850;6.506;2023-04-26T12:15:41;11.70;93.90
55083;DHT22;40978;52.850;6.506;2023-04-26T12:18:09;11.50;93.50
55083;DHT22;40978;52.850;6.506;2023-04-26T12:20:41;11.40;93.10
55083;DHT22;40978;52.850;6.506;2023-04-26T12:23:08;11.30;92.80
55083;DHT22;40978;52.850;6.506;2023-04-26T12:25:37;11.00;93.60
55083;DHT22;40978;52.850;6.506;2023-04-26T12:28:08;10.90;92.50
55083;DHT22;40978;52.850;6.506;2023-04-26T12:30:37;10.80;93.70
55083;DHT22;40978;52.850;6.506;2023-04-26T12:33:03;10.80;94.00
55083;DHT22;40978;52.850;6.506;2023-04-26T12:35:30;10.80;95.20
55083;DHT22;40978;52.850;6.506;2023-04-26T12:37:56;10.90;95.70
55083;DHT22;40978;52.850;6.506;2023-04-26T12:40:25;10.90;96.60
55083;DHT22;40978;52.850;6.506;2023-04-26T12:42:51;10.90;97.30
55083;DHT22;40978;52.850;6.506;2023-04-26T12:45:17;10.90;97.50
55083;DHT22;40978;52.850;6.506;2023-04-26T12:47:46;10.70;97.30
55083;DHT22;40978;52.850;6.506;2023-04-26T12:50:13;10.60;97.30
55083;DHT22;40978;52.850;6.506;2023-04-26T12:52:39;10.60;99.30
55083;DHT22;40978;52.850;6.506;2023-04-26T12:55:06;10.70;98.70
55083;DHT22;40978;52.850;6.506;2023-04-26T12:57:33;10.60;98.10
55083;DHT22;40978;52.850;6.506;2023-04-26T12:59:59;10.60;98.40
55083;DHT22;40978;52.850;6.506;2023-04-26T13:02:25;10.40;97.80
55083;DHT22;40978;52.850;6.506;2023-04-26T13:04:51;10.30;98.70
55083;DHT22;40978;52.850;6.506;2023-04-26T13:07:17;10.20;98.80
55083;DHT22;40978;52.850;6.506;2023-04-26T13:09:42;10.30;99.10
55083;DHT22;40978;52.850;6.506;2023-04-26T13:12:08;10.30;98.70
55083;DHT22;40978;52.850;6.506;2023-04-26T13:14:34;10.30;98.60
55083;DHT22;40978;52.850;6.506;2023-04-26T13:16:59;10.40;98.50
55083;DHT22;40978;52.850;6.506;2023-04-26T13:19:25;10.50;99.00
55083;DHT22;40978;52.850;6.506;2023-04-26T13:21:51;10.70;99.90
55083;DHT22;40978;52.850;6.506;2023-04-26T13:24:17;10.90;99.20
55083;DHT22;40978;52.850;6.506;2023-04-26T13:26:43;11.00;99.30
55083;DHT22;40978;52.850;6.506;2023-04-26T13:29:08;11.20;98.00
55083;DHT22;40978;52.850;6.506;2023-04-26T13:31:34;11.40;97.10
55083;DHT22;40978;52.850;6.506;2023-04-26T13:34:02;11.60;95.60
55083;DHT22;40978;52.850;6.506;2023-04-26T13:36:28;11.70;95.70
55083;DHT22;40978;52.850;6.506;2023-04-26T13:38:53;11.80;94.60
55083;DHT22;40978;52.850;6.506;2023-04-26T13:41:20;12.00;95.70
55083;DHT22;40978;52.850;6.506;2023-04-26T13:43:46;12.30;94.80
55083;DHT22;40978;52.850;6.506;2023-04-26T13:46:12;12.40;93.40
55083;DHT22;40978;52.850;6.506;2023-04-26T13:48:38;12.40;92.10
55083;DHT22;40978;52.850;6.506;2023-04-26T13:51:05;12.40;92.80
55083;DHT22;40978;52.850;6.506;2023-04-26T13:53:31;12.40;92.20
55083;DHT22;40978;52.850;6.506;2023-04-26T13:55:56;12.10;91.10
55083;DHT22;40978;52.850;6.506;2023-04-26T13:58:22;11.90;92.00
55083;DHT22;40978;52.850;6.506;2023-04-26T14:00:48;11.80;92.60
55083;DHT22;40978;52.850;6.506;2023-04-26T14:03:14;11.70;92.70
55083;DHT22;40978;52.850;6.506;2023-04-26T14:05:39;11.70;93.40
55083;DHT22;40978;52.850;6.506;2023-04-26T14:08:05;11.70;93.40
55083;DHT22;40978;52.850;6.506;2023-04-26T14:10:32;11.70;92.40
55083;DHT22;40978;52.850;6.506;2023-04-26T14:12:59;11.50;92.70
55083;DHT22;40978;52.850;6.506;2023-04-26T14:15:24;11.40;92.90
55083;DHT22;40978;52.850;6.506;2023-04-26T14:17:50;11.30;92.60
55083;DHT22;40978;52.850;6.506;2023-04-26T14:20:16;11.30;93.10
55083;DHT22;40978;52.850;6.506;2023-04-26T14:22:41;11.20;92.30
55083;DHT22;40978;52.850;6.506;2023-04-26T14:25:07;11.20;91.40
55083;DHT22;40978;52.850;6.506;2023-04-26T14:27:34;11.10;91.20
55083;DHT22;40978;52.850;6.506;2023-04-26T14:30:00;11.20;92.30
55083;DHT22;40978;52.850;6.506;2023-04-26T14:32:25;11.30;91.80
55083;DHT22;40978;52.850;6.506;2023-04-26T14:34:51;11.40;92.30
55083;DHT22;40978;52.850;6.506;2023-04-26T14:37:17;11.40;91.80
55083;DHT22;40978;52.850;6.506;2023-04-26T14:39:48;11.30;91.60
55083;DHT22;40978;52.850;6.506;2023-04-26T14:42:13;11.10;92.10
55083;DHT22;40978;52.850;6.506;2023-04-26T14:44:39;11.00;93.20
55083;DHT22;40978;52.850;6.506;2023-04-26T14:47:05;10.80;94.90
55083;DHT22;40978;52.850;6.506;2023-04-26T14:49:31;10.50;95.40
55083;DHT22;40978;52.850;6.506;2023-04-26T14:51:57;10.20;96.70
55083;DHT22;40978;52.850;6.506;2023-04-26T14:54:22;9.90;97.60
55083;DHT22;40978;52.850;6.506;2023-04-26T14:56:48;9.80;98.60
55083;DHT22;40978;52.850;6.506;2023-04-26T14:59:14;9.80;99.10
55083;DHT22;40978;52.850;6.506;2023-04-26T15:01:39;9.80;99.90
55083;DHT22;40978;52.850;6.506;2023-04-26T15:04:05;9.90;99.90
55083;DHT22;40978;52.850;6.506;2023-04-26T15:06:31;9.90;99.90
55083;DHT22;40978;52.850;6.506;2023-04-26T15:08:58;9.90;98.60
55083;DHT22;40978;52.850;6.506;2023-04-26T15:11:24;9.80;97.60
55083;DHT22;40978;52.850;6.506;2023-04-26T15:13:50;9.90;98.60
55083;DHT22;40978;52.850;6.506;2023-04-26T15:16:16;9.90;99.10
55083;DHT22;40978;52.850;6.506;2023-04-26T15:18:42;10.00;99.20
55083;DHT22;40978;52.850;6.506;2023-04-26T15:21:07;10.20;99.40
55083;DHT22;40978;52.850;6.506;2023-04-26T15:23:34;10.10;98.50
55083;DHT22;40978;52.850;6.506;2023-04-26T15:26:03;10.10;98.90
55083;DHT22;40978;52.850;6.506;2023-04-26T15:28:28;10.10;99.10
55083;DHT22;40978;52.850;6.506;2023-04-26T15:31:06;10.10;99.40
55083;DHT22;40978;52.850;6.506;2023-04-26T15:33:32;10.20;99.90
55083;DHT22;40978;52.850;6.506;2023-04-26T15:35:58;10.20;99.30
55083;DHT22;40978;52.850;6.506;2023-04-26T15:38:23;10.20;98.90
55083;DHT22;40978;52.850;6.506;2023-04-26T15:40:49;10.20;98.60
55083;DHT22;40978;52.850;6.506;2023-04-26T15:43:15;10.10;99.10
55083;DHT22;40978;52.850;6.506;2023-04-26T15:45:41;10.20;98.70
55083;DHT22;40978;52.850;6.506;2023-04-26T15:48:09;10.20;99.70
55083;DHT22;40978;52.850;6.506;2023-04-26T15:50:35;10.20;98.40
55083;DHT22;40978;52.850;6.506;2023-04-26T15:53:01;10.10;98.00
55083;DHT22;40978;52.850;6.506;2023-04-26T15:55:27;10.10;98.10